Time;durP1;ratioP1;P1;durP2;ratioP2;P2;SDS_P1;SDS_P2;PMS_P1;PMS_P2;Temp;Humidity;BMP_temperature;BMP_pressure;BME280_temperature;BME280_humidity;BME280_pressure;Samples;Min_cycle;Max_cycle;Signal;HPM_P1;HPM_P2
2023/12/11 00:02:07;;;;;;;2.35;1.00;;;;;;;18.09;63.70;99259.44;20843151;28;20492;-60
2023/12/11 00:12:09;;;;;;;3.35;1.10;;;;;;;18.07;63.51;99258.78;20841031;28;20049;-60
2023/12/11 00:22:11;;;;;;;4.05;1.30;;;;;;;18.04;63.62;99258.31;20831283;28;20175;-60
2023/12/11 00:32:13;;;;;;;4.93;1.70;;;;;;;18.01;63.37;99264.88;20822846;28;20049;-62
2023/12/11 00:42:14;;;;;;;3.50;1.60;;;;;;;17.93;63.28;99268.44;20813902;28;20592;-60
2023/12/11 00:52:16;;;;;;;3.10;1.10;;;;;;;17.94;63.15;99264.72;20828358;28;20060;-59
2023/12/11 01:02:18;;;;;;;4.25;1.50;;;;;;;17.93;63.20;99270.28;20828315;28;20097;-59
2023/12/11 01:12:20;;;;;;;3.45;1.38;;;;;;;17.90;62.96;99251.78;20817492;28;20540;-60
2023/12/11 01:22:22;;;;;;;4.40;1.90;;;;;;;17.88;63.00;99259.19;20835848;28;20060;-60
2023/12/11 01:32:23;;;;;;;4.70;1.85;;;;;;;17.88;62.87;99269.97;20845622;28;20048;-60
2023/12/11 01:42:25;;;;;;;5.45;2.15;;;;;;;17.85;62.79;99246.09;20855723;28;20045;-60
2023/12/11 01:52:27;;;;;;;4.22;1.70;;;;;;;17.83;62.68;99246.25;20866041;28;20049;-59
2023/12/11 02:02:29;;;;;;;6.82;1.80;;;;;;;17.82;62.67;99218.50;20854870;28;20114;-60
2023/12/11 02:12:31;;;;;;;4.25;1.52;;;;;;;17.82;62.59;99212.28;20840206;28;20055;-60
2023/12/11 02:22:33;;;;;;;3.90;1.45;;;;;;;17.82;62.69;99204.19;20844516;28;20053;-60
2023/12/11 02:32:35;;;;;;;4.20;1.42;;;;;;;17.81;62.66;99186.38;20851536;28;20493;-60
2023/12/11 02:42:37;;;;;;;4.95;1.60;;;;;;;17.80;62.47;99179.31;20860868;28;20128;-59
2023/12/11 02:52:38;;;;;;;4.03;1.67;;;;;;;17.76;62.66;99154.63;20840640;28;20057;-60
2023/12/11 03:02:40;;;;;;;5.68;1.90;;;;;;;17.74;62.82;99155.81;20853155;28;20057;-61
2023/12/11 03:12:48;;;;;;;5.63;1.85;;;;;;;17.67;63.09;99134.13;20845639;28;20110;-59
2023/12/11 03:22:50;;;;;;;6.60;2.13;;;;;;;17.65;63.06;99114.66;20857231;28;20057;-60
2023/12/11 03:32:51;;;;;;;4.18;1.90;;;;;;;17.67;63.16;99129.59;20838412;28;20053;-60
2023/12/11 03:42:53;;;;;;;5.57;1.77;;;;;;;17.67;63.34;99110.78;20851122;28;20511;-60
2023/12/11 03:52:55;;;;;;;7.20;2.03;;;;;;;17.72;63.27;99101.31;20840203;28;20132;-60
2023/12/11 04:02:57;;;;;;;4.50;1.77;;;;;;;17.74;63.24;99085.81;20834793;28;20513;-59
2023/12/11 04:13:00;;;;;;;5.18;1.80;;;;;;;17.76;63.38;99084.66;20845811;28;20052;-60
2023/12/11 04:23:01;;;;;;;5.78;1.70;;;;;;;17.78;63.24;99082.63;20846660;28;20055;-59
2023/12/11 04:33:03;;;;;;;5.65;1.88;;;;;;;17.81;63.14;99074.19;20833317;28;20052;-60
2023/12/11 04:43:05;;;;;;;5.53;2.10;;;;;;;17.74;62.97;99064.31;20843000;28;20053;-60
2023/12/11 04:53:07;;;;;;;6.80;2.28;;;;;;;17.90;62.92;99071.41;20851370;28;20534;-60
2023/12/11 05:03:09;;;;;;;7.53;2.35;;;;;;;17.96;62.70;99057.22;20862712;28;20467;-63
2023/12/11 05:13:11;;;;;;;4.07;1.60;;;;;;;18.01;62.59;99054.03;20855338;28;20533;-60
2023/12/11 05:23:13;;;;;;;4.93;1.63;;;;;;;18.03;62.31;99042.03;20861839;28;20088;-60
2023/12/11 05:33:14;;;;;;;6.97;2.53;;;;;;;18.04;62.47;99041.03;20832833;28;20049;-59
2023/12/11 05:43:16;;;;;;;6.45;2.08;;;;;;;18.04;62.45;99038.31;20845860;28;20047;-60
2023/12/11 05:53:18;;;;;;;7.28;2.03;;;;;;;18.07;62.33;99037.97;20862671;28;20080;-60
2023/12/11 06:03:20;;;;;;;6.18;2.42;;;;;;;18.10;62.43;99034.91;20846294;28;20052;-60
2023/12/11 06:13:21;;;;;;;3.70;1.70;;;;;;;18.06;62.32;99014.75;20848128;28;20463;-60
2023/12/11 06:23:23;;;;;;;4.05;1.95;;;;;;;18.20;62.25;99015.78;20828931;28;20049;-59
2023/12/11 06:33:25;;;;;;;5.35;1.80;;;;;;;18.20;62.20;99013.09;20822942;28;20055;-60
2023/12/11 06:43:27;;;;;;;5.63;1.70;;;;;;;18.19;62.23;99016.81;20799545;28;20056;-60
2023/12/11 06:53:29;;;;;;;5.80;1.70;;;;;;;18.21;62.00;99016.63;20876143;28;20056;-60
2023/12/11 07:03:31;;;;;;;3.85;1.45;;;;;;;18.22;61.90;99012.91;20879600;28;20048;-60
2023/12/11 07:13:33;;;;;;;5.35;2.15;;;;;;;18.24;62.17;99000.09;20878007;28;20437;-60
2023/12/11 07:23:36;;;;;;;4.78;1.60;;;;;;;18.23;61.87;98998.44;20858166;28;20055;-60
2023/12/11 07:33:37;;;;;;;9.70;2.20;;;;;;;18.25;62.14;98988.31;20844306;28;20068;-65
2023/12/11 07:43:39;;;;;;;7.93;1.92;;;;;;;18.46;62.22;98975.94;20799882;28;20055;-67
2023/12/11 07:53:41;;;;;;;5.25;1.75;;;;;;;18.79;61.82;98975.53;20817995;28;20254;-67
2023/12/11 08:03:43;;;;;;;4.80;1.73;;;;;;;18.98;61.62;98977.63;20804585;28;20152;-66
2023/12/11 08:13:45;;;;;;;4.97;1.65;;;;;;;19.14;61.43;98978.44;20807742;28;20058;-68
2023/12/11 08:23:47;;;;;;;4.20;1.85;;;;;;;19.24;61.37;98981.66;20803500;28;20084;-66
2023/12/11 08:33:49;;;;;;;4.28;1.80;;;;;;;19.29;61.30;98970.28;20819499;28;20416;-66
2023/12/11 08:43:52;;;;;;;3.53;1.23;;;;;;;19.31;61.12;98978.19;20815747;28;20047;-67
2023/12/11 08:53:54;;;;;;;4.63;1.52;;;;;;;19.37;60.73;98993.59;20825594;28;20045;-67
2023/12/11 09:03:56;;;;;;;4.25;1.30;;;;;;;19.42;60.83;99018.13;20803718;28;20049;-67
2023/12/11 09:13:58;;;;;;;3.20;1.45;;;;;;;19.51;60.44;99033.19;20805951;28;20100;-67
2023/12/11 09:24:00;;;;;;;2.38;0.90;;;;;;;19.61;60.50;99059.03;20812409;28;20489;-68
2023/12/11 09:34:02;;;;;;;1.65;0.82;;;;;;;19.69;60.31;99077.78;20807862;28;20049;-65
2023/12/11 09:44:05;;;;;;;1.85;0.88;;;;;;;19.80;59.95;99109.66;20843834;28;20049;-65
2023/12/11 09:54:08;;;;;;;4.35;1.20;;;;;;;19.93;59.67;99140.59;20823152;28;20352;-66
2023/12/11 10:04:09;;;;;;;2.47;1.00;;;;;;;19.91;59.85;99156.97;20817151;28;20067;-66
2023/12/11 10:14:12;;;;;;;3.78;0.95;;;;;;;19.88;60.11;99183.47;20811578;28;20055;-66
2023/12/11 10:24:14;;;;;;;2.97;1.08;;;;;;;19.93;60.58;99202.69;20818552;28;20049;-68
2023/12/11 10:34:16;;;;;;;2.65;1.05;;;;;;;19.93;60.79;99225.13;20827005;28;20508;-69
2023/12/11 10:44:23;;;;;;;2.90;0.70;;;;;;;20.04;60.95;99258.06;20814612;28;20059;-68
2023/12/11 10:54:29;;;;;;;1.90;0.70;;;;;;;20.03;60.90;99284.25;20814983;28;20055;-67
2023/12/11 11:04:33;;;;;;;1.58;0.70;;;;;;;20.03;60.57;99305.84;20807365;28;20049;-67
2023/12/11 11:14:41;;;;;;;2.77;0.70;;;;;;;19.92;60.58;99341.47;20806144;28;20623;-67
2023/12/11 11:24:43;;;;;;;2.17;0.85;;;;;;;19.86;60.57;99360.03;20818426;28;20118;-67
2023/12/11 11:34:45;;;;;;;2.45;0.90;;;;;;;19.83;61.04;99365.00;20826204;28;20266;-67
2023/12/11 11:44:47;;;;;;;3.90;1.30;;;;;;;19.92;61.17;99400.88;20824174;28;20064;-67
2023/12/11 11:54:50;;;;;;;2.08;0.80;;;;;;;19.99;61.17;99420.72;20813743;28;20048;-66
2023/12/11 12:04:52;;;;;;;2.38;0.80;;;;;;;20.03;61.05;99445.47;20816951;28;20053;-68
2023/12/11 12:15:02;;;;;;;3.30;1.25;;;;;;;20.02;61.32;99460.84;20807472;28;20103;-70
2023/12/11 12:25:15;;;;;;;3.85;1.40;;;;;;;20.11;61.05;99491.34;20809642;28;20507;-68
2023/12/11 12:35:18;;;;;;;2.55;1.33;;;;;;;20.04;60.24;99501.19;20810673;28;20075;-67
2023/12/11 12:45:34;;;;;;;3.20;1.10;;;;;;;20.19;61.18;99536.31;20809836;28;20045;-64
2023/12/11 12:55:39;;;;;;;4.13;1.50;;;;;;;20.08;61.22;99541.16;20810023;28;20063;-66
2023/12/11 13:05:44;;;;;;;9.05;1.98;;;;;;;20.16;64.43;99569.97;20818246;28;20123;-62
2023/12/11 13:15:45;;;;;;;;;;;;;;;20.23;79.46;99587.13;20828376;28;20428;-68
2023/12/11 13:25:47;;;;;;;4.63;1.90;;;;;;;20.30;80.82;99625.03;20823551;28;19932;-65
2023/12/11 13:35:51;;;;;;;2.42;1.40;;;;;;;20.29;79.73;99640.44;20825968;28;20044;-67
2023/12/11 13:45:52;;;;;;;2.83;1.25;;;;;;;20.35;78.31;99667.75;20837489;28;20045;-69
2023/12/11 13:55:54;;;;;;;3.50;1.15;;;;;;;20.28;76.82;99684.69;20843353;28;20052;-65
2023/12/11 14:05:56;;;;;;;3.10;1.23;;;;;;;20.20;74.85;99710.94;20811385;28;20049;-65
2023/12/11 14:15:58;;;;;;;2.25;1.05;;;;;;;20.19;73.33;99728.16;20825024;28;20053;-64
2023/12/11 14:26:00;;;;;;;3.42;0.95;;;;;;;20.04;71.39;99755.97;20801302;28;20462;-65
2023/12/11 14:36:02;;;;;;;2.03;0.88;;;;;;;19.82;70.26;99773.78;20809066;28;20052;-65
2023/12/11 14:46:15;;;;;;;2.10;0.88;;;;;;;19.66;69.05;99797.13;20882809;28;20045;-65
2023/12/11 14:56:17;;;;;;;2.90;0.95;;;;;;;19.51;68.57;99798.88;20881793;28;20052;-65
2023/12/11 15:06:19;;;;;;;1.42;0.65;;;;;;;19.41;67.38;99815.28;20879385;28;20550;-65
2023/12/11 15:16:23;;;;;;;1.50;0.80;;;;;;;19.28;66.56;99840.13;20865621;28;20057;-66
2023/12/11 15:26:25;;;;;;;1.98;0.52;;;;;;;19.30;66.00;99850.72;20824751;28;20183;-61
2023/12/11 15:36:27;;;;;;;1.33;0.60;;;;;;;19.34;65.24;99871.81;20826132;28;20064;-61
2023/12/11 15:46:30;;;;;;;3.25;0.60;;;;;;;19.29;64.77;99882.28;20836475;28;20051;-60
2023/12/11 15:56:32;;;;;;;0.88;0.50;;;;;;;19.13;64.90;99910.94;20859520;28;20053;-61
2023/12/11 16:06:34;;;;;;;6.70;2.95;;;;;;;19.07;67.29;99929.66;20850218;28;20071;-60
2023/12/11 16:16:36;;;;;;;16.52;5.38;;;;;;;18.95;69.88;99935.34;20828002;28;20493;-61
2023/12/11 16:26:41;;;;;;;11.95;4.18;;;;;;;18.86;72.37;99954.38;20815144;28;20046;-59
2023/12/11 16:36:47;;;;;;;10.82;3.70;;;;;;;19.00;71.34;99948.38;20799133;28;20160;-60
2023/12/11 16:46:49;;;;;;;7.43;3.30;;;;;;;19.16;70.42;99971.81;20780034;28;20053;-60
2023/12/11 16:56:51;;;;;;;6.85;2.63;;;;;;;19.19;70.20;99976.03;20779865;28;20056;-59
2023/12/11 17:06:52;;;;;;;7.47;2.70;;;;;;;19.17;69.68;99983.44;20787513;28;20046;-59
2023/12/11 17:16:54;;;;;;;4.95;2.00;;;;;;;19.11;68.96;99998.47;20796031;28;20558;-60
2023/12/11 17:26:56;;;;;;;5.47;1.75;;;;;;;19.06;68.79;100027.78;20839612;28;20076;-60
2023/12/11 17:36:58;;;;;;;4.15;1.80;;;;;;;19.03;68.07;100028.13;20830236;28;20048;-60
2023/12/11 17:47:00;;;;;;;3.63;1.60;;;;;;;18.99;67.46;100047.31;20827843;28;20057;-60
2023/12/11 17:57:03;;;;;;;3.13;1.33;;;;;;;18.97;66.99;100057.41;20831879;28;20048;-60
2023/12/11 18:07:05;;;;;;;4.57;1.33;;;;;;;18.92;66.83;100069.69;20832197;28;20049;-60
2023/12/11 18:17:07;;;;;;;4.20;0.90;;;;;;;18.76;66.45;100070.47;20816883;28;20103;-59
2023/12/11 18:27:09;;;;;;;3.05;1.00;;;;;;;18.77;66.29;100109.91;20821330;28;20187;-61
2023/12/11 18:37:11;;;;;;;2.03;0.80;;;;;;;18.68;65.81;100104.47;20818903;28;20520;-60
2023/12/11 18:47:13;;;;;;;1.98;1.00;;;;;;;18.65;65.16;100120.13;20853157;28;20671;-60
2023/12/11 18:57:15;;;;;;;3.17;0.75;;;;;;;18.56;64.58;100121.94;20845997;28;20049;-60
2023/12/11 19:07:17;;;;;;;2.25;0.80;;;;;;;18.49;64.16;100134.34;20832274;28;20111;-60
2023/12/11 19:17:19;;;;;;;1.67;0.80;;;;;;;18.41;64.01;100144.06;20831539;28;20119;-60
2023/12/11 19:27:24;;;;;;;1.38;0.63;;;;;;;18.36;63.84;100146.41;20842737;28;20133;-61
2023/12/11 19:37:26;;;;;;;2.63;0.80;;;;;;;18.34;63.25;100169.97;20848591;28;20048;-60
2023/12/11 19:47:28;;;;;;;1.65;0.80;;;;;;;18.29;62.79;100160.66;20830549;28;20050;-60
2023/12/11 19:57:30;;;;;;;1.98;0.63;;;;;;;18.23;62.55;100168.38;20842834;28;20497;-60
2023/12/11 20:07:32;;;;;;;1.08;0.50;;;;;;;18.21;62.19;100177.63;20827807;28;20052;-60
2023/12/11 20:17:35;;;;;;;1.27;0.55;;;;;;;18.12;61.82;100182.09;20850912;28;20416;-60
2023/12/11 20:27:37;;;;;;;0.70;0.40;;;;;;;18.04;61.84;100201.72;20821686;28;20787;-60
2023/12/11 20:37:39;;;;;;;1.40;0.77;;;;;;;18.01;61.47;100207.41;20834687;28;20057;-60
2023/12/11 20:47:41;;;;;;;1.05;0.50;;;;;;;17.94;61.24;100227.84;20840464;28;20064;-60
2023/12/11 20:57:43;;;;;;;1.95;0.40;;;;;;;17.91;61.04;100228.16;20830719;28;20057;-60
2023/12/11 21:07:44;;;;;;;0.93;0.60;;;;;;;17.85;60.83;100242.22;20817807;28;20072;-60
2023/12/11 21:17:46;;;;;;;1.58;0.60;;;;;;;17.81;60.40;100249.75;20831764;28;20057;-64
2023/12/11 21:27:48;;;;;;;1.60;0.60;;;;;;;17.77;60.15;100249.22;20823858;28;20126;-60
2023/12/11 21:37:50;;;;;;;1.65;0.63;;;;;;;17.74;59.99;100259.44;20859801;28;20044;-60
2023/12/11 21:47:52;;;;;;;1.33;0.60;;;;;;;17.70;59.55;100264.28;20865001;28;20067;-60
2023/12/11 21:57:54;;;;;;;0.90;0.40;;;;;;;17.68;59.25;100277.06;20832735;28;20419;-59
2023/12/11 22:07:55;;;;;;;0.80;0.50;;;;;;;17.63;58.93;100292.78;20859869;28;20048;-59
2023/12/11 22:17:57;;;;;;;0.63;0.38;;;;;;;17.61;58.54;100297.47;20845718;28;20125;-59
2023/12/11 22:27:59;;;;;;;1.00;0.47;;;;;;;17.56;58.24;100299.75;20861035;28;20049;-60
2023/12/11 22:38:01;;;;;;;0.88;0.50;;;;;;;17.50;57.88;100318.19;20855391;28;21860;-60
2023/12/11 22:48:04;;;;;;;0.82;0.45;;;;;;;17.46;57.67;100332.94;20841859;28;20049;-59
2023/12/11 22:58:06;;;;;;;0.68;0.40;;;;;;;17.43;57.46;100332.38;20843114;28;20053;-59
2023/12/11 23:08:17;;;;;;;0.93;0.40;;;;;;;17.36;57.23;100354.50;20857810;28;20045;-60
2023/12/11 23:18:19;;;;;;;0.93;0.50;;;;;;;17.32;57.13;100363.88;20844651;28;20122;-60
2023/12/11 23:28:20;;;;;;;0.55;0.40;;;;;;;17.32;56.88;100363.88;20832315;28;20413;-60
2023/12/11 23:38:22;;;;;;;0.40;0.40;;;;;;;17.32;56.83;100369.25;20857159;28;20054;-59
2023/12/11 23:48:24;;;;;;;1.02;0.52;;;;;;;17.33;56.52;100364.72;20850668;28;20045;-60
2023/12/11 23:58:26;;;;;;;0.73;0.52;;;;;;;17.34;56.38;100352.97;20854250;28;20060;-60
